Flight Track Log - Related Links

Times and Time Zones

All times are in EDT time to prevent confusion due to time zone crossing. See the RPA3161 flight status page for this flight to view local times or setup timezone preferences in your user account.

Time Position Orientation Groundspeed Altitude Reporting Facility
EDT Latitude Longitude Course Direction KTS MPH feet Rate Location/Type
Tue 01:52:00 PM 44.1608 -73.2647 195° South  Level FlightAware
Tue 01:53:00 PM 44.0583 -73.3028 194° South  Level FlightAware
Tue 01:53:19 PM 44.2672 -73.1794 198° South 264 304 7,600  Level Boston Center
Tue 01:54:00 PM 43.9550 -73.3372 194° South  Level FlightAware
Tue 01:54:19 PM 44.1903 -73.1814 181° South 264 304 9,900  Level Boston Center
Tue 01:55:00 PM 43.8523 -73.3742 195° South  Level FlightAware
Tue 01:55:19 PM 44.1047 -73.1831 181° South 294 338 11,600  Level Boston Center
Tue 01:56:00 PM 43.7498 -73.4127 195° South  Level FlightAware
Tue 01:56:19 PM 44.0150 -73.1964 186° South 319 367 13,400  Level Boston Center
Tue 01:57:00 PM 43.6474 -73.4512 198° South  Level FlightAware
Tue 01:57:19 PM 43.9317 -73.2097 187° South 334 384 15,500  Level Boston Center
Tue 01:58:00 PM 43.5466 -73.4971 198° South  Level FlightAware
Tue 01:58:19 PM 43.8356 -73.2231 186° South 345 397 17,100  Level Boston Center
Tue 01:59:19 PM 43.7375 -73.2389 187° South 356 410 18,400 1,450 Climbing Boston Center
Tue 02:00:19 PM 43.6250 -73.2517 185° South 363 418 20,000 1,500 Climbing Boston Center
Tue 02:01:19 PM 43.5250 -73.2675 187° South 369 425 21,400 1,182 Climbing Boston Center
Tue 02:02:31 PM 43.4186 -73.2833 186° South 369 425 22,600 1,091 Climbing Boston Center
Tue 02:03:31 PM 43.3036 -73.3017 187° South 375 432 23,800 700 Climbing Boston Center
Tue 02:04:31 PM 43.1931 -73.3144 185° South 386 444 24,000 350 Climbing Boston Center
Tue 02:05:31 PM 43.0850 -73.2786 166° South 391 450 24,500 700 Climbing Boston Center
Tue 02:06:31 PM 42.9767 -73.2886 184° South 396 456 25,400 900 Climbing Boston Center
Tue 02:07:31 PM 42.8661 -73.3097 188° South 403 464 26,300 1,000 Climbing Boston Center
Tue 02:08:31 PM 42.7511 -73.3308 188° South 408 470 27,400 1,150 Climbing Boston Center
Tue 02:09:31 PM 42.6258 -73.3572 189° South 415 478 28,600 1,100 Climbing Boston Center
Tue 02:10:31 PM 42.5092 -73.3753 187° South 415 478 29,600 700 Climbing Boston Center
Tue 02:11:31 PM 42.3922 -73.3931 186° South 429 494 30,000 200 Climbing Boston Center
Tue 02:12:31 PM 42.2964 -73.4028 184° South 423 487 30,000  Level Boston Center
Tue 02:13:31 PM 42.1939 -73.4208 187° South 410 472 30,000  Level Boston Center
Tue 02:14:31 PM 42.0561 -73.4522 190° South 410 472 30,000  Level Boston Center
Tue 02:15:31 PM 41.9456 -73.4728 188° South 415 478 30,000  Level Boston Center
Tue 02:16:31 PM 41.8328 -73.4906 187° South 410 472 30,000  Level Boston Center
Tue 02:17:31 PM 41.7200 -73.5108 188° South 410 472 30,000  Level Boston Center
Tue 02:18:31 PM 41.6094 -73.5283 187° South 410 472 30,000  Level Boston Center
Tue 02:20:27 PM 41.4097 -73.5594 187° South 411 473 30,000  Level New Center
Tue 02:21:29 PM 41.2986 -73.5908 192° South 411 473 30,000  Level New Center
Tue 02:22:28 PM 41.2194 -73.6867 222° Southwest 382 440 30,000 -51 Level New Center
Tue 02:23:27 PM 41.1497 -73.8050 232° Southwest 387 445 29,900  Descending New Center
Tue 02:24:30 PM 41.0800 -73.9228 232° Southwest 401 461 30,000 49 Climbing New Center
Tue 02:25:29 PM 41.0122 -74.0406 233° Southwest 406 467 30,000  Level New Center
Tue 02:26:27 PM 40.9444 -74.1528 231° Southwest 406 467 30,000  Level New Center
Tue 02:27:28 PM 40.8678 -74.2806 232° Southwest 401 461 30,000 -984 Level New Center
Tue 02:28:29 PM 40.7933 -74.4028 231° Southwest 418 481 28,000 -1,131 Descending New Center
Tue 02:29:30 PM 40.7186 -74.5247 231° Southwest 435 501 27,700 -864 Descending New Center
Tue 02:30:27 PM 40.6439 -74.6467 231° Southwest 435 501 26,300 -1,563 Descending New Center
Tue 02:31:29 PM 40.5689 -74.7653 230° Southwest 429 494 24,600 -1,500 Descending New Center
Tue 02:32:27 PM 40.4989 -74.8650 227° Southwest 418 481 23,300 -1,300 Descending New Center
Tue 02:33:29 PM 40.4222 -74.9722 227° Southwest 418 481 22,000 -650 Descending New Center
Tue 02:34:27 PM 40.3408 -75.0869 227° Southwest 408 470 22,000  Level New Center
Tue 02:35:28 PM 40.2642 -75.1911 226° Southwest 402 463 22,000  Level New Center
Tue 02:36:29 PM 40.1869 -75.3003 227° Southwest 407 468 22,000  Level New Center
Tue 02:37:27 PM 40.1186 -75.3961 227° Southwest 407 468 22,000  Level New Center
Tue 02:38:27 PM 40.0350 -75.5100 226° Southwest 407 468 22,000  Level New Center
Tue 02:39:28 PM 39.9708 -75.5978 226° Southwest 392 451 22,000  Level New Center
Tue 02:40:33 PM 39.8975 -75.7089 229° Southwest 375 432 22,000 -136 Level New Center
Tue 02:41:40 PM 39.8294 -75.8419 236° Southwest 370 426 21,700  Descending New Center
Tue 02:42:41 PM 39.7794 -75.9331 234° Southwest 355 409 22,000 -1,059 Climbing New Center
Tue 02:43:39 PM 39.7181 -76.0472 235° Southwest 362 417 19,600 -2,118 Descending New Center
Tue 02:44:40 PM 39.6533 -76.1422 229° Southwest 362 417 17,800 -2,016 Descending New Center
Tue 02:45:41 PM 39.5950 -76.2347 231° Southwest 350 403 15,500 -2,222 Descending New Center
Tue 02:46:55 PM 39.5333 -76.3667 239° Southwest 332 382 12,800 -1,612 Descending Potomac TRACON
Tue 02:47:55 PM 39.4500 -76.4333 212° Southwest 324 373 11,900 -496 Descending Potomac TRACON
Tue 02:48:56 PM 39.3833 -76.4833 210° Southwest 331 381 11,800 -595 Descending Potomac TRACON
Tue 02:49:56 PM 39.3000 -76.5500 212° Southwest 322 371 10,700 -900 Descending Potomac TRACON
Tue 02:50:56 PM 39.2333 -76.6167 218° Southwest 316 364 10,000 -350 Descending Potomac TRACON
Tue 02:51:56 PM 39.1667 -76.6833 218° Southwest 318 366 10,000  Level Potomac TRACON
Tue 02:52:56 PM 39.1000 -76.7500 218° Southwest 291 335 10,000  Level Potomac TRACON
Tue 02:53:56 PM 39.0333 -76.8167 218° Southwest 291 335 10,000 -500 Level Potomac TRACON
Tue 02:54:56 PM 38.9833 -76.8833 226° Southwest 285 328 9,000 -1,300 Descending Potomac TRACON
Tue 02:55:56 PM 38.9167 -76.9500 218° Southwest 291 335 7,400 -1,350 Descending Potomac TRACON
Tue 02:56:56 PM 38.8333 -76.9500 180° South 283 326 6,300 -1,350 Descending Potomac TRACON
Tue 02:57:56 PM 38.7667 -76.9500 180° South 250 288 4,700 -1,600 Descending Potomac TRACON

Login

Don't have an account? Register now (free) for customized features, flight alerts, and more!